Time;durP1;ratioP1;P1;durP2;ratioP2;P2;SDS_P1;SDS_P2;PMS_P1;PMS_P2;Temp;Humidity;BMP_temperature;BMP_pressure;BME280_temperature;BME280_humidity;BME280_pressure;Samples;Min_cycle;Max_cycle;Signal;HPM_P1;HPM_P2
2022/03/31 00:00:12;;;;;;;32.60;13.50;;;;;;;;;;5094129;28;20055;-72
2022/03/31 00:02:38;;;;;;;29.63;12.27;;;;;;;;;;5084955;28;20021;-72
2022/03/31 00:05:04;;;;;;;32.30;12.68;;;;;;;;;;5082937;28;20097;-72
2022/03/31 00:07:30;;;;;;;36.58;13.00;;;;;;;;;;5082516;28;20110;-73
2022/03/31 00:09:56;;;;;;;32.78;13.40;;;;;;;;;;5074645;28;20397;-72
2022/03/31 00:12:22;;;;;;;27.98;11.10;;;;;;;;;;5091041;28;20488;-73
2022/03/31 00:14:48;;;;;;;34.13;12.52;;;;;;;;;;5076164;28;20410;-73
2022/03/31 00:17:15;;;;;;;30.77;11.98;;;;;;;;;;5071741;28;20027;-73
2022/03/31 00:19:41;;;;;;;31.65;12.43;;;;;;;;;;5090577;28;20028;-72
2022/03/31 00:22:07;;;;;;;29.42;11.75;;;;;;;;;;5084660;28;20074;-72
2022/03/31 00:24:33;;;;;;;34.13;12.02;;;;;;;;;;5089760;28;20393;-73
2022/03/31 00:26:59;;;;;;;41.00;13.25;;;;;;;;;;5076782;28;20035;-73
2022/03/31 00:29:25;;;;;;;26.63;12.07;;;;;;;;;;5079684;28;20412;-73
2022/03/31 00:31:51;;;;;;;27.40;12.25;;;;;;;;;;5086127;28;20036;-73
2022/03/31 00:34:17;;;;;;;32.38;12.88;;;;;;;;;;5085246;28;20052;-73
2022/03/31 00:36:43;;;;;;;35.15;13.07;;;;;;;;;;5084803;28;20546;-73
2022/03/31 00:41:54;;;;;;;32.58;12.68;;;;;;;;;;5088404;28;20082;-72
2022/03/31 00:44:20;;;;;;;28.92;12.05;;;;;;;;;;5080184;28;20452;-72
2022/03/31 00:46:46;;;;;;;28.67;12.75;;;;;;;;;;5087697;28;20094;-73
2022/03/31 00:49:13;;;;;;;31.38;12.90;;;;;;;;;;5070665;28;20663;-72
2022/03/31 00:51:39;;;;;;;26.45;12.45;;;;;;;;;;5082382;28;20019;-73
2022/03/31 00:54:05;;;;;;;23.50;10.95;;;;;;;;;;5087910;28;20473;-73
2022/03/31 00:56:32;;;;;;;31.88;12.23;;;;;;;;;;5083381;28;20024;-72
2022/03/31 00:58:58;;;;;;;32.30;11.98;;;;;;;;;;5077310;28;20687;-73
2022/03/31 01:01:24;;;;;;;27.38;12.90;;;;;;;;;;5081323;28;20057;-73
2022/03/31 01:03:50;;;;;;;27.45;12.25;;;;;;;;;;5090747;28;20020;-72
2022/03/31 01:06:16;;;;;;;28.77;11.07;;;;;;;;;;5078400;28;20416;-73
2022/03/31 01:08:42;;;;;;;30.50;12.40;;;;;;;;;;5086500;28;20031;-73
2022/03/31 01:11:08;;;;;;;30.40;13.10;;;;;;;;;;5084928;28;20031;-72
2022/03/31 01:13:34;;;;;;;26.02;11.82;;;;;;;;;;5080550;28;20103;-72
2022/03/31 01:16:01;;;;;;;26.80;12.35;;;;;;;;;;5083735;28;20422;-73
2022/03/31 01:18:27;;;;;;;25.77;12.88;;;;;;;;;;5075294;28;20043;-72
2022/03/31 01:20:53;;;;;;;28.75;13.13;;;;;;;;;;5081927;28;20086;-73
2022/03/31 01:23:20;;;;;;;34.25;13.27;;;;;;;;;;5078399;28;20029;-73
2022/03/31 01:25:46;;;;;;;25.75;12.20;;;;;;;;;;5102102;28;20393;-73
2022/03/31 01:28:12;;;;;;;27.40;12.77;;;;;;;;;;5082551;28;20484;-72
2022/03/31 01:30:38;;;;;;;25.63;12.95;;;;;;;;;;5076616;28;20488;-72
2022/03/31 01:33:04;;;;;;;26.23;12.75;;;;;;;;;;5080848;28;20028;-72
2022/03/31 01:35:30;;;;;;;28.63;12.60;;;;;;;;;;5077328;28;20374;-73
2022/03/31 01:37:56;;;;;;;30.92;14.02;;;;;;;;;;5077450;28;20363;-72
2022/03/31 01:40:22;;;;;;;23.40;12.15;;;;;;;;;;5090980;28;20043;-73
2022/03/31 01:42:48;;;;;;;32.17;14.38;;;;;;;;;;5087501;28;20027;-72
2022/03/31 01:45:15;;;;;;;30.15;13.23;;;;;;;;;;5071200;28;20443;-73
2022/03/31 01:47:42;;;;;;;30.85;13.27;;;;;;;;;;5081114;28;20040;-73
2022/03/31 01:50:11;;;;;;;31.52;13.82;;;;;;;;;;5086956;28;20454;-73
2022/03/31 01:52:41;;;;;;;26.27;12.45;;;;;;;;;;5086290;28;20028;-73
2022/03/31 01:55:07;;;;;;;27.65;12.48;;;;;;;;;;5090521;28;20031;-72
2022/03/31 01:57:34;;;;;;;30.80;13.77;;;;;;;;;;5086733;28;20059;-71
2022/03/31 02:00:02;;;;;;;30.73;14.27;;;;;;;;;;5083444;28;20123;-73
2022/03/31 02:02:30;;;;;;;30.73;13.60;;;;;;;;;;5076523;28;20112;-73
2022/03/31 02:04:56;;;;;;;32.35;13.50;;;;;;;;;;5082987;28;20561;-72
2022/03/31 02:07:22;;;;;;;28.80;13.10;;;;;;;;;;5076857;28;20114;-72
2022/03/31 02:09:48;;;;;;;32.90;13.60;;;;;;;;;;5079014;28;20469;-73
2022/03/31 02:12:14;;;;;;;32.63;15.13;;;;;;;;;;5076804;28;20046;-72
2022/03/31 02:14:41;;;;;;;30.25;13.85;;;;;;;;;;5092116;28;20026;-72
2022/03/31 02:17:08;;;;;;;33.10;13.73;;;;;;;;;;5092650;28;20020;-72
2022/03/31 02:19:34;;;;;;;32.53;14.85;;;;;;;;;;5084302;28;20550;-72
2022/03/31 02:22:01;;;;;;;40.83;14.40;;;;;;;;;;5071978;28;20115;-72
2022/03/31 02:24:27;;;;;;;32.55;14.90;;;;;;;;;;5081577;28;20027;-72
2022/03/31 02:26:53;;;;;;;31.92;14.25;;;;;;;;;;5104702;28;20031;-72
2022/03/31 02:29:19;;;;;;;35.47;14.75;;;;;;;;;;5091664;28;20115;-73
2022/03/31 02:31:46;;;;;;;31.00;13.13;;;;;;;;;;5087495;28;20056;-73
2022/03/31 02:34:13;;;;;;;28.58;11.55;;;;;;;;;;5084919;28;20042;-73
2022/03/31 02:36:40;;;;;;;27.10;13.20;;;;;;;;;;5081541;28;20091;-73
2022/03/31 02:39:07;;;;;;;29.95;14.10;;;;;;;;;;5084224;28;20020;-73
2022/03/31 02:41:33;;;;;;;29.48;12.60;;;;;;;;;;5068512;28;20033;-72
2022/03/31 02:44:00;;;;;;;31.00;14.15;;;;;;;;;;5070136;28;20465;-73
2022/03/31 02:46:27;;;;;;;28.85;12.40;;;;;;;;;;5088895;28;20404;-73
2022/03/31 02:48:54;;;;;;;25.13;11.73;;;;;;;;;;5077058;28;20480;-73
2022/03/31 02:51:20;;;;;;;30.77;13.45;;;;;;;;;;5076979;28;20032;-72
2022/03/31 02:56:31;;;;;;;23.35;12.32;;;;;;;;;;5092988;28;20043;-72
2022/03/31 02:58:58;;;;;;;28.63;13.75;;;;;;;;;;5085428;28;20024;-73
2022/03/31 03:01:26;;;;;;;28.10;13.10;;;;;;;;;;5081083;28;20081;-73
2022/03/31 03:03:53;;;;;;;24.65;12.32;;;;;;;;;;5082967;28;20028;-73
2022/03/31 03:06:19;;;;;;;28.42;13.68;;;;;;;;;;5081205;28;20500;-72
2022/03/31 03:08:45;;;;;;;30.95;13.63;;;;;;;;;;5091911;28;20131;-73
2022/03/31 03:11:11;;;;;;;28.00;12.88;;;;;;;;;;5089520;28;20038;-73
2022/03/31 03:13:37;;;;;;;29.63;13.27;;;;;;;;;;5088764;28;20432;-73
2022/03/31 03:16:07;;;;;;;32.80;15.13;;;;;;;;;;5091635;28;20499;-72
2022/03/31 03:18:34;;;;;;;;;;;;;;;;;;5086130;28;20052;-72
2022/03/31 03:21:00;;;;;;;31.85;13.35;;;;;;;;;;5079453;28;19919;-73
2022/03/31 03:23:26;;;;;;;25.73;12.68;;;;;;;;;;5079569;28;20055;-73
2022/03/31 03:25:52;;;;;;;26.77;12.55;;;;;;;;;;5087757;28;20194;-73
2022/03/31 03:28:19;;;;;;;34.97;13.70;;;;;;;;;;5084382;28;20493;-73
2022/03/31 03:30:45;;;;;;;31.15;13.50;;;;;;;;;;5081640;28;20398;-72
2022/03/31 03:33:11;;;;;;;30.50;13.82;;;;;;;;;;5079359;28;20029;-72
2022/03/31 03:35:37;;;;;;;30.80;13.82;;;;;;;;;;5084005;28;20020;-72
2022/03/31 03:38:03;;;;;;;30.63;13.65;;;;;;;;;;5091633;28;20383;-73
2022/03/31 03:40:31;;;;;;;30.52;12.98;;;;;;;;;;5078753;28;20064;-73
2022/03/31 03:42:57;;;;;;;31.35;14.02;;;;;;;;;;5085994;28;20031;-73
2022/03/31 03:45:24;;;;;;;30.05;13.95;;;;;;;;;;5087615;28;20031;-72
2022/03/31 03:47:50;;;;;;;33.03;14.27;;;;;;;;;;5089255;28;20036;-72
2022/03/31 03:50:16;;;;;;;24.35;11.80;;;;;;;;;;5085089;28;20317;-73
2022/03/31 03:52:42;;;;;;;28.70;13.52;;;;;;;;;;5087201;28;20123;-72
2022/03/31 03:58:19;;;;;;;26.42;13.18;;;;;;;;;;5012490;28;20041;-72
2022/03/31 04:00:45;;;;;;;30.30;12.68;;;;;;;;;;5070784;28;20401;-72
2022/03/31 04:03:11;;;;;;;26.67;13.07;;;;;;;;;;5079930;28;20381;-73
2022/03/31 04:05:38;;;;;;;30.50;14.45;;;;;;;;;;5086417;28;20056;-72
2022/03/31 04:08:04;;;;;;;35.15;16.48;;;;;;;;;;5083058;28;20027;-73
2022/03/31 04:10:30;;;;;;;38.30;15.57;;;;;;;;;;5087164;28;20047;-73
2022/03/31 04:12:56;;;;;;;32.60;14.70;;;;;;;;;;5088078;28;20029;-75
2022/03/31 04:15:23;;;;;;;33.30;14.93;;;;;;;;;;5072407;28;20024;-72
2022/03/31 04:17:49;;;;;;;34.80;14.68;;;;;;;;;;5089394;28;20052;-72
2022/03/31 04:20:15;;;;;;;35.20;15.57;;;;;;;;;;5091081;28;20170;-72
2022/03/31 04:22:42;;;;;;;37.28;15.13;;;;;;;;;;5077893;28;20043;-72
2022/03/31 04:25:08;;;;;;;32.83;15.32;;;;;;;;;;5083246;28;20036;-72
2022/03/31 04:27:35;;;;;;;32.10;14.57;;;;;;;;;;5088118;28;20048;-73
2022/03/31 04:30:04;;;;;;;32.20;14.80;;;;;;;;;;5082014;28;20024;-72
2022/03/31 04:32:30;;;;;;;33.15;14.77;;;;;;;;;;5089284;28;20024;-72
2022/03/31 04:34:56;;;;;;;33.47;13.93;;;;;;;;;;5080879;28;20031;-72
2022/03/31 04:37:22;;;;;;;34.78;15.40;;;;;;;;;;5082283;28;20028;-72
2022/03/31 04:39:48;;;;;;;38.28;14.63;;;;;;;;;;5082491;28;20134;-72
2022/03/31 04:42:14;;;;;;;35.47;14.77;;;;;;;;;;5089509;28;20036;-72
2022/03/31 04:44:40;;;;;;;35.22;14.48;;;;;;;;;;5080974;28;20350;-72
2022/03/31 04:47:07;;;;;;;34.67;15.35;;;;;;;;;;5083213;28;20097;-72
2022/03/31 04:49:34;;;;;;;34.40;16.23;;;;;;;;;;5077745;28;20028;-72
2022/03/31 04:52:01;;;;;;;31.80;16.05;;;;;;;;;;5081474;28;20078;-72
2022/03/31 04:54:27;;;;;;;32.55;15.30;;;;;;;;;;5083090;28;20037;-72
2022/03/31 04:56:53;;;;;;;30.50;14.75;;;;;;;;;;5087405;28;20024;-72
2022/03/31 04:59:19;;;;;;;34.72;15.50;;;;;;;;;;5077057;28;20040;-72
2022/03/31 05:01:45;;;;;;;29.48;14.63;;;;;;;;;;5077682;28;20038;-72
2022/03/31 05:04:12;;;;;;;32.88;15.65;;;;;;;;;;5081314;28;20028;-72
2022/03/31 05:06:38;;;;;;;33.58;15.13;;;;;;;;;;5077644;28;20051;-72
2022/03/31 05:09:04;;;;;;;36.58;15.77;;;;;;;;;;5081391;28;20020;-73
2022/03/31 05:11:30;;;;;;;37.42;15.85;;;;;;;;;;5084086;28;20090;-72
2022/03/31 05:13:56;;;;;;;28.58;14.35;;;;;;;;;;5079880;28;20430;-72
2022/03/31 05:16:22;;;;;;;34.88;15.90;;;;;;;;;;5081346;28;20091;-71
2022/03/31 05:18:48;;;;;;;34.15;16.08;;;;;;;;;;5069751;28;20028;-71
2022/03/31 05:21:15;;;;;;;33.40;14.13;;;;;;;;;;5070319;28;20037;-71
2022/03/31 05:23:41;;;;;;;31.15;15.98;;;;;;;;;;5069909;28;20063;-71
2022/03/31 05:26:07;;;;;;;40.35;17.83;;;;;;;;;;5082769;28;20102;-71
2022/03/31 05:28:33;;;;;;;31.92;16.15;;;;;;;;;;5093393;28;20047;-71
2022/03/31 05:30:59;;;;;;;39.38;16.30;;;;;;;;;;5111490;28;20032;-71
2022/03/31 05:33:25;;;;;;;37.42;17.10;;;;;;;;;;5110790;28;20031;-71
2022/03/31 05:35:51;;;;;;;36.95;14.75;;;;;;;;;;5111914;28;20036;-71
2022/03/31 05:38:17;;;;;;;37.08;16.60;;;;;;;;;;5111255;28;20102;-71
2022/03/31 05:40:43;;;;;;;32.28;15.23;;;;;;;;;;5108405;28;20040;-71
2022/03/31 05:43:09;;;;;;;38.33;16.70;;;;;;;;;;5090630;28;20023;-71
2022/03/31 05:45:35;;;;;;;39.72;15.65;;;;;;;;;;5072534;28;20020;-71
2022/03/31 05:48:02;;;;;;;36.45;16.58;;;;;;;;;;5091225;28;20020;-71
2022/03/31 05:50:28;;;;;;;36.85;16.33;;;;;;;;;;5073416;28;20016;-71
2022/03/31 05:52:54;;;;;;;36.17;15.90;;;;;;;;;;5090931;28;20101;-71
2022/03/31 05:55:21;;;;;;;42.92;16.98;;;;;;;;;;5091535;28;20028;-71
2022/03/31 05:57:47;;;;;;;39.38;17.65;;;;;;;;;;5108573;28;20377;-71
2022/03/31 06:00:15;;;;;;;36.55;15.85;;;;;;;;;;5091888;28;20488;-71
2022/03/31 06:02:41;;;;;;;44.72;17.02;;;;;;;;;;5091417;28;20032;-71
2022/03/31 06:05:08;;;;;;;44.83;17.92;;;;;;;;;;5076864;28;20480;-71
2022/03/31 06:07:34;;;;;;;39.80;18.45;;;;;;;;;;5094004;28;20064;-71
2022/03/31 06:10:00;;;;;;;39.35;16.90;;;;;;;;;;5094406;28;20032;-71
2022/03/31 06:12:26;;;;;;;42.15;18.02;;;;;;;;;;5097865;28;20073;-71
2022/03/31 06:14:52;;;;;;;39.35;16.50;;;;;;;;;;5073735;28;20066;-71
2022/03/31 06:17:18;;;;;;;39.70;17.00;;;;;;;;;;5090757;28;20052;-72
2022/03/31 06:19:44;;;;;;;39.70;16.27;;;;;;;;;;5090481;28;20032;-71
2022/03/31 06:22:10;;;;;;;40.30;17.92;;;;;;;;;;5089916;28;20035;-71
2022/03/31 06:24:36;;;;;;;36.55;16.80;;;;;;;;;;5071353;28;20384;-72
2022/03/31 06:27:06;;;;;;;39.10;17.83;;;;;;;;;;5099450;28;20062;-72
2022/03/31 06:29:32;;;;;;;45.15;18.00;;;;;;;;;;5092123;28;20173;-71
2022/03/31 06:31:58;;;;;;;49.00;18.83;;;;;;;;;;5092651;28;20402;-71
2022/03/31 06:34:25;;;;;;;49.67;18.23;;;;;;;;;;5110522;28;20262;-71
2022/03/31 06:36:51;;;;;;;48.17;17.13;;;;;;;;;;5114406;28;20019;-71
2022/03/31 06:39:18;;;;;;;40.40;16.30;;;;;;;;;;5114278;28;20420;-72
2022/03/31 06:41:44;;;;;;;41.92;17.55;;;;;;;;;;5107461;28;20501;-71
2022/03/31 06:44:13;;;;;;;39.08;15.80;;;;;;;;;;5093826;28;20108;-71
2022/03/31 06:46:39;;;;;;;40.75;15.88;;;;;;;;;;5075733;28;20024;-71
2022/03/31 06:49:05;;;;;;;47.65;17.52;;;;;;;;;;5072694;28;20086;-71
2022/03/31 06:51:31;;;;;;;39.97;15.50;;;;;;;;;;5062501;28;20020;-71
2022/03/31 06:53:58;;;;;;;41.47;17.48;;;;;;;;;;5072978;28;20031;-71
2022/03/31 06:56:27;;;;;;;38.58;16.67;;;;;;;;;;5076693;28;20465;-71
2022/03/31 06:58:53;;;;;;;42.95;16.27;;;;;;;;;;5075805;28;20016;-71
2022/03/31 07:01:19;;;;;;;42.10;17.33;;;;;;;;;;5075299;28;20063;-72
2022/03/31 07:03:45;;;;;;;37.25;15.80;;;;;;;;;;5093700;28;20539;-72
2022/03/31 07:06:12;;;;;;;43.78;16.55;;;;;;;;;;5075638;28;20070;-72
2022/03/31 07:08:38;;;;;;;34.65;15.30;;;;;;;;;;5093538;28;20031;-71
2022/03/31 07:11:04;;;;;;;39.92;17.13;;;;;;;;;;5074931;28;20035;-72
2022/03/31 07:13:30;;;;;;;40.63;15.52;;;;;;;;;;5106813;28;20026;-71
2022/03/31 07:15:58;;;;;;;36.50;16.20;;;;;;;;;;5075223;28;20044;-72
2022/03/31 07:18:24;;;;;;;34.25;15.02;;;;;;;;;;5092130;28;20414;-71
2022/03/31 07:20:50;;;;;;;38.78;15.60;;;;;;;;;;5074128;28;20063;-71
2022/03/31 07:23:18;;;;;;;34.70;14.48;;;;;;;;;;5092483;28;20477;-71
2022/03/31 07:25:44;;;;;;;45.05;17.02;;;;;;;;;;5092690;28;20099;-71
2022/03/31 07:28:10;;;;;;;31.25;13.70;;;;;;;;;;5107072;28;20031;-71
2022/03/31 07:30:36;;;;;;;37.33;15.63;;;;;;;;;;5113228;28;20532;-71
2022/03/31 07:33:03;;;;;;;35.03;16.23;;;;;;;;;;5094883;28;20092;-71
2022/03/31 07:35:31;;;;;;;35.92;14.88;;;;;;;;;;5095011;28;20023;-72
2022/03/31 07:37:57;;;;;;;38.25;15.23;;;;;;;;;;5112527;28;20027;-72
2022/03/31 07:40:24;;;;;;;29.70;14.07;;;;;;;;;;5113498;28;20092;-72
2022/03/31 07:42:50;;;;;;;45.53;16.63;;;;;;;;;;5101198;28;20100;-71
2022/03/31 07:45:17;;;;;;;33.20;14.82;;;;;;;;;;5092197;28;20419;-72
2022/03/31 07:47:43;;;;;;;34.88;14.95;;;;;;;;;;5092823;28;20085;-71
2022/03/31 07:50:10;;;;;;;40.65;17.25;;;;;;;;;;5092621;28;20021;-71
2022/03/31 07:52:37;;;;;;;32.85;15.50;;;;;;;;;;5092213;28;20434;-71
2022/03/31 07:55:04;;;;;;;35.90;16.42;;;;;;;;;;5092166;28;20036;-71
2022/03/31 07:57:30;;;;;;;33.58;15.60;;;;;;;;;;5096449;28;20019;-71
2022/03/31 07:59:56;;;;;;;41.17;16.83;;;;;;;;;;5111450;28;20023;-72
2022/03/31 08:02:25;;;;;;;35.15;14.60;;;;;;;;;;5111271;28;20051;-72
2022/03/31 08:04:51;;;;;;;38.22;17.40;;;;;;;;;;5111558;28;20034;-71
2022/03/31 08:07:17;;;;;;;33.42;14.60;;;;;;;;;;5111396;28;20487;-72
2022/03/31 08:09:43;;;;;;;40.13;15.68;;;;;;;;;;5111384;28;20023;-71
2022/03/31 08:12:10;;;;;;;36.65;15.48;;;;;;;;;;5110347;28;20023;-72
2022/03/31 08:14:36;;;;;;;30.90;13.93;;;;;;;;;;5112715;28;20016;-72
2022/03/31 08:17:03;;;;;;;34.60;15.43;;;;;;;;;;5112683;28;20574;-71
2022/03/31 08:19:32;;;;;;;32.58;14.27;;;;;;;;;;5093495;28;20031;-71
2022/03/31 08:22:01;;;;;;;31.52;14.80;;;;;;;;;;5111568;28;20035;-71
2022/03/31 08:24:27;;;;;;;32.83;13.75;;;;;;;;;;5112295;28;20015;-72
2022/03/31 08:26:53;;;;;;;29.08;14.05;;;;;;;;;;5076442;28;20119;-71
2022/03/31 08:29:19;;;;;;;29.23;13.50;;;;;;;;;;5073748;28;20068;-71
2022/03/31 08:31:46;;;;;;;30.98;14.32;;;;;;;;;;5092174;28;20365;-71
2022/03/31 08:34:12;;;;;;;34.05;14.40;;;;;;;;;;5091857;28;20035;-72
2022/03/31 08:36:38;;;;;;;36.53;15.85;;;;;;;;;;5092420;28;20064;-72
2022/03/31 08:39:05;;;;;;;29.73;13.63;;;;;;;;;;5092008;28;20024;-71
2022/03/31 08:41:31;;;;;;;31.75;14.65;;;;;;;;;;5073709;28;20067;-72
2022/03/31 08:43:57;;;;;;;32.60;14.50;;;;;;;;;;5092258;28;20028;-71
2022/03/31 08:46:24;;;;;;;39.13;15.23;;;;;;;;;;5092228;28;20362;-72
2022/03/31 08:48:50;;;;;;;33.83;14.80;;;;;;;;;;5091701;28;20024;-72
2022/03/31 08:51:16;;;;;;;36.17;13.68;;;;;;;;;;5073103;28;20473;-72
2022/03/31 08:53:42;;;;;;;29.27;13.18;;;;;;;;;;5074181;28;20114;-72
2022/03/31 08:56:10;;;;;;;27.63;13.05;;;;;;;;;;5073615;28;20027;-72
2022/03/31 08:58:36;;;;;;;29.08;13.60;;;;;;;;;;5090918;28;20020;-72
2022/03/31 09:01:02;;;;;;;27.20;12.52;;;;;;;;;;5090979;28;20478;-71
2022/03/31 09:03:35;;;;;;;36.00;14.00;;;;;;;;;;5090827;28;20086;-71
2022/03/31 09:06:01;;;;;;;25.92;12.93;;;;;;;;;;5091777;28;20028;-72
2022/03/31 09:08:27;;;;;;;30.35;13.45;;;;;;;;;;5073464;28;20064;-71
2022/03/31 09:10:58;;;;;;;32.50;14.77;;;;;;;;;;5091508;28;20095;-71
2022/03/31 09:13:25;;;;;;;30.98;12.73;;;;;;;;;;5072954;28;20115;-71
2022/03/31 09:16:17;;;;;;;29.35;13.18;;;;;;;;;;5073179;28;20020;-72
2022/03/31 09:18:43;;;;;;;33.92;13.07;;;;;;;;;;5087669;28;20123;-71
2022/03/31 09:21:11;;;;;;;28.95;13.10;;;;;;;;;;5073192;28;20036;-71
2022/03/31 09:23:41;;;;;;;34.72;13.60;;;;;;;;;;5073380;28;20016;-71
2022/03/31 09:26:11;;;;;;;28.58;13.85;;;;;;;;;;5091444;28;20119;-71
2022/03/31 09:28:38;;;;;;;29.42;14.50;;;;;;;;;;5080074;28;20085;-71
2022/03/31 09:31:06;;;;;;;25.08;13.38;;;;;;;;;;5112014;28;20059;-71
2022/03/31 09:33:33;;;;;;;30.10;13.38;;;;;;;;;;5092522;28;20035;-71
2022/03/31 09:36:00;;;;;;;28.00;13.38;;;;;;;;;;5111302;28;20127;-71
2022/03/31 09:38:27;;;;;;;27.92;12.80;;;;;;;;;;5111955;28;20023;-71
2022/03/31 09:40:54;;;;;;;32.22;13.63;;;;;;;;;;5092763;28;20032;-72
2022/03/31 09:43:20;;;;;;;29.58;13.07;;;;;;;;;;5106729;28;20027;-71
2022/03/31 09:45:46;;;;;;;28.65;13.13;;;;;;;;;;5091300;28;20020;-71
2022/03/31 09:48:19;;;;;;;27.48;12.63;;;;;;;;;;5090945;28;20025;-71
2022/03/31 09:50:46;;;;;;;24.48;12.55;;;;;;;;;;5090989;28;20032;-71
2022/03/31 09:53:12;;;;;;;29.50;12.85;;;;;;;;;;5090646;28;20035;-71
2022/03/31 09:55:38;;;;;;;29.17;14.13;;;;;;;;;;5090255;28;20027;-71
2022/03/31 09:58:05;;;;;;;40.60;13.75;;;;;;;;;;5072653;28;20081;-72
2022/03/31 10:00:33;;;;;;;26.65;13.07;;;;;;;;;;5091684;28;20605;-71
2022/03/31 10:02:59;;;;;;;26.73;13.65;;;;;;;;;;5090554;28;20055;-71
2022/03/31 10:05:27;;;;;;;33.35;14.63;;;;;;;;;;5084135;28;20066;-71
2022/03/31 10:07:53;;;;;;;33.50;13.75;;;;;;;;;;5073979;28;20025;-71
2022/03/31 10:10:19;;;;;;;32.58;13.85;;;;;;;;;;5074159;28;20505;-71
2022/03/31 10:12:51;;;;;;;26.73;11.93;;;;;;;;;;5074522;28;20032;-71
2022/03/31 10:15:28;;;;;;;16.55;7.55;;;;;;;;;;5093323;28;20501;-72
2022/03/31 10:17:54;;;;;;;23.80;10.68;;;;;;;;;;5094732;28;20020;-71
2022/03/31 10:20:21;;;;;;;27.25;14.15;;;;;;;;;;5095555;28;20109;-72
2022/03/31 10:25:42;;;;;;;24.33;12.85;;;;;;;;;;5095471;28;20047;-71
2022/03/31 10:28:09;;;;;;;22.17;9.38;;;;;;;;;;5076821;28;20455;-71
2022/03/31 10:30:36;;;;;;;26.33;12.27;;;;;;;;;;5095525;28;20562;-72
2022/03/31 10:33:03;;;;;;;24.75;12.65;;;;;;;;;;5093598;28;20073;-72
2022/03/31 10:35:40;;;;;;;22.17;11.70;;;;;;;;;;5076295;28;20028;-72
2022/03/31 10:38:19;;;;;;;25.98;13.02;;;;;;;;;;5076230;28;20075;-71
2022/03/31 10:40:49;;;;;;;28.50;12.00;;;;;;;;;;5094312;28;20061;-71
2022/03/31 10:43:31;;;;;;;36.30;16.23;;;;;;;;;;5094230;28;20035;-71
2022/03/31 10:46:00;;;;;;;29.25;13.13;;;;;;;;;;5074458;28;20668;-71
2022/03/31 10:48:31;;;;;;;26.67;12.68;;;;;;;;;;5072374;28;20023;-71
2022/03/31 10:50:57;;;;;;;;;;;;;;;;;;5074346;28;20021;-71
2022/03/31 10:53:33;;;;;;;23.92;11.23;;;;;;;;;;5073411;28;19905;-71
2022/03/31 10:56:00;;;;;;;25.90;11.98;;;;;;;;;;5073818;28;20024;-71
2022/03/31 10:58:28;;;;;;;31.38;12.90;;;;;;;;;;5073581;28;20129;-71
2022/03/31 11:00:57;;;;;;;25.30;12.15;;;;;;;;;;5093996;28;20039;-71
2022/03/31 11:03:24;;;;;;;31.95;13.52;;;;;;;;;;5094267;28;20077;-71
2022/03/31 11:05:51;;;;;;;24.42;13.02;;;;;;;;;;5094930;28;20096;-71
2022/03/31 11:08:17;;;;;;;26.92;12.85;;;;;;;;;;5076101;28;20118;-71
2022/03/31 11:10:53;;;;;;;28.95;13.77;;;;;;;;;;5076131;28;20047;-71
2022/03/31 11:13:20;;;;;;;29.73;14.43;;;;;;;;;;5094873;28;20035;-71
2022/03/31 11:15:55;;;;;;;24.50;12.65;;;;;;;;;;5111802;28;20050;-71
2022/03/31 11:18:21;;;;;;;31.45;11.65;;;;;;;;;;5116254;28;20036;-71
2022/03/31 11:20:56;;;;;;;28.48;13.23;;;;;;;;;;5114415;28;20040;-71
2022/03/31 11:23:22;;;;;;;32.45;13.95;;;;;;;;;;5115808;28;20045;-70
2022/03/31 11:25:48;;;;;;;25.92;11.20;;;;;;;;;;5115212;28;20031;-71
2022/03/31 11:28:14;;;;;;;26.50;12.65;;;;;;;;;;5114720;28;20031;-71
2022/03/31 11:30:43;;;;;;;22.40;10.52;;;;;;;;;;5096757;28;20060;-71
2022/03/31 11:33:10;;;;;;;28.88;12.23;;;;;;;;;;5074902;28;20496;-71
2022/03/31 11:35:37;;;;;;;22.92;11.57;;;;;;;;;;5093228;28;20118;-71
2022/03/31 11:38:04;;;;;;;29.02;13.18;;;;;;;;;;5075110;28;20043;-71
2022/03/31 11:40:37;;;;;;;27.05;11.90;;;;;;;;;;5093125;28;20028;-71
2022/03/31 11:43:06;;;;;;;26.85;12.38;;;;;;;;;;5080773;28;20512;-71
2022/03/31 11:45:33;;;;;;;26.75;14.18;;;;;;;;;;5087296;28;20032;-71
2022/03/31 11:47:59;;;;;;;24.17;11.98;;;;;;;;;;5094745;28;20027;-71
2022/03/31 11:50:26;;;;;;;28.92;13.07;;;;;;;;;;5094357;28;20377;-71
2022/03/31 11:52:53;;;;;;;23.85;12.77;;;;;;;;;;5094632;28;20484;-71
2022/03/31 11:55:22;;;;;;;25.65;13.48;;;;;;;;;;5075595;28;20028;-71
2022/03/31 11:57:52;;;;;;;27.00;13.85;;;;;;;;;;5093432;28;20031;-71
2022/03/31 12:00:19;;;;;;;31.95;12.77;;;;;;;;;;5093429;28;20123;-71
2022/03/31 12:03:15;;;;;;;41.28;16.80;;;;;;;;;;5075235;28;20570;-71
2022/03/31 12:05:42;;;;;;;22.98;12.45;;;;;;;;;;5011592;28;20484;-71
2022/03/31 12:08:24;;;;;;;23.52;13.07;;;;;;;;;;5011544;28;20037;-71
2022/03/31 12:10:51;;;;;;;25.30;12.98;;;;;;;;;;4994818;28;20026;-71
2022/03/31 12:13:17;;;;;;;26.55;11.75;;;;;;;;;;5011125;28;20169;-71
2022/03/31 12:15:44;;;;;;;25.58;11.90;;;;;;;;;;4991344;28;20042;-71
2022/03/31 12:18:12;;;;;;;24.77;12.15;;;;;;;;;;4991363;28;20306;-71
2022/03/31 12:20:39;;;;;;;21.13;11.23;;;;;;;;;;5006091;28;20057;-71
2022/03/31 12:23:16;;;;;;;23.02;11.38;;;;;;;;;;5010077;28;20213;-71
2022/03/31 12:25:43;;;;;;;25.40;12.45;;;;;;;;;;5011159;28;20037;-71
2022/03/31 12:28:09;;;;;;;25.00;13.65;;;;;;;;;;5010683;28;20029;-70
2022/03/31 12:30:54;;;;;;;27.92;13.30;;;;;;;;;;5015163;28;20025;-70
2022/03/31 12:33:34;;;;;;;22.95;11.70;;;;;;;;;;5009557;28;20038;-71
2022/03/31 12:36:04;;;;;;;23.73;11.57;;;;;;;;;;5011280;28;20057;-71
2022/03/31 12:38:38;;;;;;;23.58;10.90;;;;;;;;;;5011050;28;20033;-71
2022/03/31 12:41:09;;;;;;;24.15;10.68;;;;;;;;;;5017587;28;20026;-71
2022/03/31 12:43:35;;;;;;;21.75;10.35;;;;;;;;;;5072956;28;20374;-71
2022/03/31 12:46:12;;;;;;;24.83;11.50;;;;;;;;;;5084384;28;20592;-71
2022/03/31 12:48:39;;;;;;;24.88;11.18;;;;;;;;;;5074504;28;20036;-70
2022/03/31 12:51:08;;;;;;;23.38;11.18;;;;;;;;;;5074552;28;20107;-71
2022/03/31 12:53:43;;;;;;;23.40;11.73;;;;;;;;;;5074219;28;20043;-71
2022/03/31 12:56:09;;;;;;;21.70;10.98;;;;;;;;;;5074394;28;20036;-71
2022/03/31 12:58:37;;;;;;;22.95;11.23;;;;;;;;;;5073948;28;20028;-71
2022/03/31 13:01:04;;;;;;;22.23;10.55;;;;;;;;;;5085945;28;20027;-70
2022/03/31 13:03:31;;;;;;;19.38;9.57;;;;;;;;;;5107286;28;20499;-71
2022/03/31 13:06:01;;;;;;;22.50;10.07;;;;;;;;;;5065384;28;20108;-70
2022/03/31 13:08:27;;;;;;;24.60;11.90;;;;;;;;;;5057928;28;20032;-71
2022/03/31 13:10:58;;;;;;;22.92;11.48;;;;;;;;;;5074082;28;20039;-70
2022/03/31 13:13:27;;;;;;;19.80;10.82;;;;;;;;;;5053918;28;20488;-71
2022/03/31 13:15:53;;;;;;;23.85;12.85;;;;;;;;;;5064738;28;20057;-71
2022/03/31 13:18:21;;;;;;;21.35;10.93;;;;;;;;;;5074155;28;20031;-71
2022/03/31 13:20:48;;;;;;;25.50;12.75;;;;;;;;;;5073822;28;20028;-70
2022/03/31 13:23:15;;;;;;;24.83;10.70;;;;;;;;;;5067780;28;20079;-71
2022/03/31 13:25:41;;;;;;;25.42;10.40;;;;;;;;;;5068731;28;20055;-71
2022/03/31 13:28:08;;;;;;;21.17;10.93;;;;;;;;;;5068408;28;20029;-71
2022/03/31 13:30:34;;;;;;;25.98;11.05;;;;;;;;;;5068608;28;20108;-71
2022/03/31 13:33:00;;;;;;;23.33;12.43;;;;;;;;;;5051967;28;20028;-71
2022/03/31 13:35:27;;;;;;;22.35;11.35;;;;;;;;;;5051661;28;20115;-71
2022/03/31 13:37:54;;;;;;;27.55;10.05;;;;;;;;;;5051378;28;20501;-71
2022/03/31 13:40:21;;;;;;;25.95;11.40;;;;;;;;;;5067479;28;20059;-70
2022/03/31 13:42:47;;;;;;;24.92;11.40;;;;;;;;;;5049666;28;20050;-71
2022/03/31 13:45:13;;;;;;;21.52;11.32;;;;;;;;;;5066776;28;20428;-71
2022/03/31 13:47:45;;;;;;;26.95;11.52;;;;;;;;;;5067529;28;20074;-70
2022/03/31 13:50:11;;;;;;;26.90;11.32;;;;;;;;;;5068198;28;20028;-70
2022/03/31 13:52:37;;;;;;;22.27;10.07;;;;;;;;;;5067759;28;20032;-70
2022/03/31 13:55:05;;;;;;;24.30;9.98;;;;;;;;;;5067387;28;20552;-71
2022/03/31 14:03:01;;;;;;;23.15;10.32;;;;;;;;;;5068858;28;20463;-70
2022/03/31 14:05:27;;;;;;;24.88;12.07;;;;;;;;;;5067889;28;20045;-70
2022/03/31 14:07:55;;;;;;;25.38;11.70;;;;;;;;;;5068031;28;20036;-70
2022/03/31 14:10:21;;;;;;;24.35;11.82;;;;;;;;;;5069086;28;20032;-70
2022/03/31 14:12:47;;;;;;;21.83;10.95;;;;;;;;;;5071459;28;20040;-70
2022/03/31 14:15:14;;;;;;;24.35;11.60;;;;;;;;;;5079100;28;20476;-71
2022/03/31 14:17:40;;;;;;;25.38;11.65;;;;;;;;;;5091464;28;20319;-70
2022/03/31 14:20:08;;;;;;;29.05;11.35;;;;;;;;;;5071914;28;20028;-71
2022/03/31 14:22:34;;;;;;;21.98;9.80;;;;;;;;;;5089393;28;20388;-70
2022/03/31 14:25:00;;;;;;;23.45;11.65;;;;;;;;;;5073006;28;20418;-70
2022/03/31 14:27:26;;;;;;;22.27;10.40;;;;;;;;;;5092211;28;20055;-70
2022/03/31 14:29:53;;;;;;;19.45;10.15;;;;;;;;;;5072779;28;20488;-71
2022/03/31 14:32:19;;;;;;;20.52;10.10;;;;;;;;;;5105468;28;20084;-70
2022/03/31 14:34:45;;;;;;;25.13;10.38;;;;;;;;;;5110608;28;20115;-71